Time;durP1;ratioP1;P1;durP2;ratioP2;P2;SDS_P1;SDS_P2;PMS_P1;PMS_P2;Temp;Humidity;BMP_temperature;BMP_pressure;BME280_temperature;BME280_humidity;BME280_pressure;Samples;Min_cycle;Max_cycle;Signal;HPM_P1;HPM_P2
2021/05/17 00:00:47;;;;;;;;;;;12.40;90.00;;;;;;4393973;32;20012;-76
2021/05/17 00:03:22;;;;;;;;;;;12.40;90.10;;;;;;4407110;32;20023;-76
2021/05/17 00:05:55;;;;;;;;;;;12.40;90.10;;;;;;4393481;32;20059;-76
2021/05/17 00:08:27;;;;;;;;;;;12.30;90.10;;;;;;4393541;32;20310;-76
2021/05/17 00:10:55;;;;;;;;;;;12.30;90.10;;;;;;4381076;32;19996;-76
2021/05/17 00:13:25;;;;;;;;;;;12.30;90.10;;;;;;4393632;32;20099;-76
2021/05/17 00:15:52;;;;;;;;;;;12.30;90.10;;;;;;4393208;32;20011;-76
2021/05/17 00:18:25;;;;;;;;;;;12.30;90.20;;;;;;4393438;32;20479;-76
2021/05/17 00:20:55;;;;;;;;;;;12.30;90.20;;;;;;4393592;32;20430;-76
2021/05/17 00:23:24;;;;;;;;;;;12.30;90.20;;;;;;4393650;32;20023;-76
2021/05/17 00:25:57;;;;;;;;;;;12.30;90.20;;;;;;4406911;32;20091;-76
2021/05/17 00:28:24;;;;;;;;;;;12.20;90.20;;;;;;4393398;32;20004;-76
2021/05/17 00:30:51;;;;;;;;;;;12.20;90.20;;;;;;4406601;32;20079;-76
2021/05/17 00:33:22;;;;;;;;;;;12.20;90.30;;;;;;4393026;32;20063;-76
2021/05/17 00:35:50;;;;;;;;;;;12.20;90.30;;;;;;4393215;32;20504;-75
2021/05/17 00:38:23;;;;;;;;;;;12.20;90.30;;;;;;4406924;32;20015;-75
2021/05/17 00:40:54;;;;;;;;;;;12.20;90.30;;;;;;4392687;32;20019;-75
2021/05/17 00:43:32;;;;;;;;;;;12.10;90.30;;;;;;4393170;32;19996;-75
2021/05/17 00:46:08;;;;;;;;;;;12.20;90.40;;;;;;4406719;32;20125;-75
2021/05/17 00:48:36;;;;;;;;;;;12.10;90.30;;;;;;4393139;32;20070;-75
2021/05/17 00:51:10;;;;;;;;;;;12.20;90.40;;;;;;4394034;32;20008;-75
2021/05/17 00:53:40;;;;;;;;;;;12.10;90.40;;;;;;4406794;32;20018;-75
2021/05/17 00:56:12;;;;;;;;;;;12.20;90.40;;;;;;4393628;32;20012;-75
2021/05/17 00:58:40;;;;;;;;;;;12.10;90.40;;;;;;4392751;32;20010;-75
2021/05/17 01:01:10;;;;;;;;;;;12.10;90.40;;;;;;4393148;32;20063;-75
2021/05/17 01:03:37;;;;;;;;;;;12.10;90.60;;;;;;4406042;32;20051;-75
2021/05/17 01:06:23;;;;;;;;;;;12.00;90.60;;;;;;4393431;32;20012;-75
2021/05/17 01:09:02;;;;;;;;;;;12.00;90.60;;;;;;4380480;32;20014;-75
2021/05/17 01:11:29;;;;;;;;;;;12.00;90.60;;;;;;4393050;32;20393;-75
2021/05/17 01:14:01;;;;;;;;;;;12.00;90.70;;;;;;4392505;32;20012;-75
2021/05/17 01:16:34;;;;;;;;;;;12.00;90.70;;;;;;4406588;32;20060;-76
2021/05/17 01:19:05;;;;;;;;;;;12.00;90.70;;;;;;4392924;32;20012;-75
2021/05/17 01:21:40;;;;;;;;;;;12.00;90.60;;;;;;4392668;32;20001;-75
2021/05/17 01:24:11;;;;;;;;;;;12.10;90.60;;;;;;4406474;32;20101;-76
2021/05/17 01:26:38;;;;;;;;;;;12.10;90.60;;;;;;4392381;32;20448;-75
2021/05/17 01:29:08;;;;;;;;;;;12.10;90.60;;;;;;4392553;32;20071;-76
2021/05/17 01:31:35;;;;;;;;;;;12.10;90.70;;;;;;4406289;32;20064;-75
2021/05/17 01:34:14;;;;;;;;;;;12.10;90.70;;;;;;4381148;32;20126;-75
2021/05/17 01:36:44;;;;;;;;;;;12.10;90.80;;;;;;4406034;32;20007;-76
2021/05/17 01:39:14;;;;;;;;;;;12.10;90.70;;;;;;4392844;32;20016;-75
2021/05/17 01:41:42;;;;;;;;;;;12.10;90.70;;;;;;4392660;32;20014;-75
2021/05/17 01:44:13;;;;;;;;;;;12.00;90.70;;;;;;4405882;32;19996;-76
2021/05/17 01:46:47;;;;;;;;;;;12.00;90.80;;;;;;4406245;32;20119;-76
2021/05/17 01:49:14;;;;;;;;;;;12.00;90.90;;;;;;4406279;32;20356;-76
2021/05/17 01:51:49;;;;;;;;;;;12.00;90.90;;;;;;4406045;32;20012;-76
2021/05/17 01:54:17;;;;;;;;;;;12.00;90.90;;;;;;4405882;32;20408;-75
2021/05/17 01:56:45;;;;;;;;;;;12.00;90.90;;;;;;4380045;32;19992;-75
2021/05/17 01:59:12;;;;;;;;;;;12.00;90.90;;;;;;4392171;32;20055;-75
2021/05/17 02:01:43;;;;;;;;;;;12.00;90.90;;;;;;4392765;32;20026;-75
2021/05/17 02:04:10;;;;;;;;;;;12.00;90.90;;;;;;4392282;32;20051;-75
2021/05/17 02:06:37;;;;;;;;;;;12.00;91.00;;;;;;4392606;32;20007;-75
2021/05/17 02:09:07;;;;;;;;;;;12.00;91.10;;;;;;4405651;32;20068;-75
2021/05/17 02:11:35;;;;;;;;;;;12.00;91.10;;;;;;4392366;32;20027;-75
2021/05/17 02:14:05;;;;;;;;;;;11.90;91.20;;;;;;4392392;32;20073;-75
2021/05/17 02:16:35;;;;;;;;;;;11.90;91.10;;;;;;4379736;32;19997;-75
2021/05/17 02:19:02;;;;;;;;;;;11.90;91.20;;;;;;4406522;32;20071;-75
2021/05/17 02:21:35;;;;;;;;;;;11.90;91.30;;;;;;4382216;32;20059;-75
2021/05/17 02:24:08;;;;;;;;;;;11.90;91.30;;;;;;4394781;32;20008;-75
2021/05/17 02:26:35;;;;;;;;;;;11.90;91.30;;;;;;4408612;32;20004;-74
2021/05/17 02:29:08;;;;;;;;;;;11.90;91.30;;;;;;4382175;32;20393;-75
2021/05/17 02:31:35;;;;;;;;;;;11.90;91.30;;;;;;4394733;32;20000;-75
2021/05/17 02:34:09;;;;;;;;;;;11.90;91.20;;;;;;4408609;32;20011;-75
2021/05/17 02:36:36;;;;;;;;;;;12.00;91.20;;;;;;4394957;32;20043;-74
2021/05/17 02:39:07;;;;;;;;;;;11.90;91.20;;;;;;4408312;32;20012;-74
2021/05/17 02:41:40;;;;;;;;;;;11.90;91.20;;;;;;4408509;32;20051;-75
2021/05/17 02:44:07;;;;;;;;;;;11.90;91.10;;;;;;4395410;32;20026;-75
2021/05/17 02:46:40;;;;;;;;;;;11.90;91.10;;;;;;4382353;32;20004;-74
2021/05/17 02:49:07;;;;;;;;;;;11.90;91.10;;;;;;4394407;32;20397;-74
2021/05/17 02:51:38;;;;;;;;;;;11.90;91.10;;;;;;4408319;32;20401;-74
2021/05/17 02:54:11;;;;;;;;;;;11.90;91.30;;;;;;4408288;32;20426;-74
2021/05/17 02:56:56;;;;;;;;;;;11.90;91.30;;;;;;4394415;32;20448;-74
2021/05/17 02:59:33;;;;;;;;;;;11.90;91.30;;;;;;4381959;32;20395;-73
2021/05/17 03:02:07;;;;;;;;;;;11.90;91.20;;;;;;4407979;32;20034;-74
2021/05/17 03:04:40;;;;;;;;;;;11.90;91.20;;;;;;4394555;32;20016;-74
2021/05/17 03:07:13;;;;;;;;;;;11.90;91.20;;;;;;4407911;32;20020;-74
2021/05/17 03:09:44;;;;;;;;;;;11.90;91.20;;;;;;4394606;32;20480;-74
2021/05/17 03:12:13;;;;;;;;;;;11.90;91.20;;;;;;4408285;32;20004;-73
2021/05/17 03:14:44;;;;;;;;;;;11.90;91.20;;;;;;4408173;32;20472;-74
2021/05/17 03:17:14;;;;;;;;;;;11.90;91.30;;;;;;4394215;32;20130;-74
2021/05/17 03:19:42;;;;;;;;;;;11.90;91.30;;;;;;4407672;32;20000;-73
2021/05/17 03:22:14;;;;;;;;;;;11.90;91.30;;;;;;4408093;32;20077;-74
2021/05/17 03:24:44;;;;;;;;;;;11.90;91.30;;;;;;4394047;32;20051;-74
2021/05/17 03:27:22;;;;;;;;;;;11.80;91.30;;;;;;4408001;32;20018;-73
2021/05/17 03:29:52;;;;;;;;;;;11.90;91.40;;;;;;4393842;32;20008;-74
2021/05/17 03:32:22;;;;;;;;;;;11.90;91.30;;;;;;4407474;32;20021;-74
2021/05/17 03:34:52;;;;;;;;;;;11.90;91.30;;;;;;4408012;32;20448;-74
2021/05/17 03:37:19;;;;;;;;;;;11.90;91.30;;;;;;4407569;32;20071;-74
2021/05/17 03:39:50;;;;;;;;;;;11.80;91.30;;;;;;4394472;32;20356;-73
2021/05/17 03:42:20;;;;;;;;;;;11.90;91.30;;;;;;4407601;32;20051;-74
2021/05/17 03:44:48;;;;;;;;;;;11.80;91.30;;;;;;4407843;32;20056;-74
2021/05/17 03:47:21;;;;;;;;;;;11.80;91.40;;;;;;4393449;32;20022;-74
2021/05/17 03:49:48;;;;;;;;;;;11.80;91.40;;;;;;4393902;32;20007;-73
2021/05/17 03:52:16;;;;;;;;;;;11.80;91.30;;;;;;4381185;32;20004;-74
2021/05/17 03:54:43;;;;;;;;;;;11.80;91.30;;;;;;4407415;32;20063;-74
2021/05/17 03:57:19;;;;;;;;;;;11.80;91.30;;;;;;4407441;32;20055;-74
2021/05/17 03:59:52;;;;;;;;;;;11.80;91.30;;;;;;4380637;32;19999;-74
2021/05/17 04:02:24;;;;;;;;;;;11.80;91.30;;;;;;4407076;32;20016;-74
2021/05/17 04:15:43;;;;;;;;;;;11.80;91.30;;;;;;4406782;32;20019;-74
2021/05/17 04:18:11;;;;;;;;;;;11.70;91.30;;;;;;4406780;32;20389;-74
2021/05/17 04:20:38;;;;;;;;;;;11.70;91.30;;;;;;4393328;32;20010;-74
2021/05/17 04:23:06;;;;;;;;;;;11.70;91.40;;;;;;4407019;32;20064;-75
2021/05/17 04:25:33;;;;;;;;;;;11.70;91.40;;;;;;4393149;32;20055;-75
2021/05/17 04:28:00;;;;;;;;;;;11.70;91.40;;;;;;4393053;32;20000;-74
2021/05/17 04:30:31;;;;;;;;;;;11.70;91.50;;;;;;4406540;32;20442;-75
2021/05/17 04:33:11;;;;;;;;;;;11.70;91.50;;;;;;4406838;32;20003;-74
2021/05/17 04:35:39;;;;;;;;;;;11.70;91.50;;;;;;4406904;32;20015;-74
2021/05/17 04:38:09;;;;;;;;;;;11.60;91.60;;;;;;4393353;32;20018;-75
2021/05/17 04:40:36;;;;;;;;;;;11.60;91.70;;;;;;4380563;32;20019;-76
2021/05/17 04:43:03;;;;;;;;;;;11.60;91.80;;;;;;4406468;32;20545;-76
2021/05/17 04:45:33;;;;;;;;;;;11.50;91.90;;;;;;4392651;32;20412;-75
2021/05/17 04:48:00;;;;;;;;;;;11.60;91.80;;;;;;4406475;32;20043;-75
2021/05/17 04:50:27;;;;;;;;;;;11.60;91.70;;;;;;4406575;32;20022;-75
2021/05/17 04:52:57;;;;;;;;;;;11.60;91.60;;;;;;4393068;32;20046;-75
2021/05/17 04:55:31;;;;;;;;;;;11.60;91.70;;;;;;4406958;32;20012;-76
2021/05/17 04:58:02;;;;;;;;;;;11.60;91.70;;;;;;4393023;32;20021;-75
2021/05/17 05:00:29;;;;;;;;;;;11.60;91.80;;;;;;4406605;32;20007;-75
2021/05/17 05:02:59;;;;;;;;;;;11.60;91.80;;;;;;4406288;32;20083;-75
2021/05/17 05:05:27;;;;;;;;;;;11.60;91.70;;;;;;4406625;32;20063;-76
2021/05/17 05:07:54;;;;;;;;;;;11.60;91.80;;;;;;4406505;32;20497;-76
2021/05/17 05:10:24;;;;;;;;;;;11.60;91.90;;;;;;4406170;32;20062;-75
2021/05/17 05:12:51;;;;;;;;;;;11.60;91.90;;;;;;4392922;32;20021;-75
2021/05/17 05:15:19;;;;;;;;;;;11.60;91.90;;;;;;4406549;32;20012;-75
2021/05/17 05:17:55;;;;;;;;;;;11.60;91.90;;;;;;4381053;32;20008;-75
2021/05/17 05:20:24;;;;;;;;;;;11.60;91.90;;;;;;4406492;32;20035;-75
2021/05/17 05:22:58;;;;;;;;;;;11.60;91.80;;;;;;4380392;32;20002;-75
2021/05/17 05:28:19;;;;;;;;;;;11.60;91.80;;;;;;4382644;32;20018;-75
2021/05/17 05:33:17;;;;;;;;;;;11.60;91.70;;;;;;4406464;32;20071;-75
2021/05/17 05:35:47;;;;;;;;;;;11.60;91.70;;;;;;4406105;32;20142;-75
2021/05/17 05:38:14;;;;;;;;;;;11.60;91.80;;;;;;4406085;32;20059;-75
2021/05/17 05:40:42;;;;;;;;;;;11.60;91.70;;;;;;4406190;32;20059;-75
2021/05/17 05:43:11;;;;;;;;;;;11.60;91.80;;;;;;4380114;32;20007;-75
2021/05/17 05:45:45;;;;;;;;;;;11.70;91.80;;;;;;4406184;32;20017;-75
2021/05/17 05:48:17;;;;;;;;;;;11.70;91.70;;;;;;4392674;32;20393;-75
2021/05/17 05:50:47;;;;;;;;;;;11.70;91.70;;;;;;4406222;32;20055;-75
2021/05/17 05:53:14;;;;;;;;;;;11.70;91.70;;;;;;4406257;32;20096;-75
2021/05/17 05:55:45;;;;;;;;;;;11.70;91.70;;;;;;4394926;32;20049;-75
2021/05/17 05:58:17;;;;;;;;;;;11.70;91.70;;;;;;4395529;32;20014;-76
2021/05/17 06:00:45;;;;;;;;;;;11.70;91.80;;;;;;4395537;32;20396;-75
2021/05/17 06:03:15;;;;;;;;;;;11.70;91.80;;;;;;4395326;32;20438;-75
2021/05/17 06:05:44;;;;;;;;;;;11.70;91.80;;;;;;4394979;32;20314;-74
2021/05/17 06:08:15;;;;;;;;;;;11.70;91.90;;;;;;4409002;32;20063;-75
2021/05/17 06:10:44;;;;;;;;;;;11.70;91.90;;;;;;4394857;32;20067;-75
2021/05/17 06:13:15;;;;;;;;;;;11.80;91.80;;;;;;4408589;32;20022;-75
2021/05/17 06:15:44;;;;;;;;;;;11.80;91.90;;;;;;4394883;32;20004;-75
2021/05/17 06:18:15;;;;;;;;;;;11.80;92.00;;;;;;4408463;32;20071;-75
2021/05/17 06:20:44;;;;;;;;;;;11.70;91.90;;;;;;4395203;32;20004;-75
2021/05/17 06:23:16;;;;;;;;;;;11.80;92.00;;;;;;4394699;32;20043;-75
2021/05/17 06:25:43;;;;;;;;;;;11.80;91.90;;;;;;4408737;32;20014;-74
2021/05/17 06:28:12;;;;;;;;;;;11.80;91.90;;;;;;4408409;32;20015;-75
2021/05/17 06:30:52;;;;;;;;;;;11.80;92.00;;;;;;4395415;32;20016;-75
2021/05/17 06:33:21;;;;;;;;;;;11.80;91.90;;;;;;4394653;32;20020;-75
2021/05/17 06:35:58;;;;;;;;;;;11.80;91.90;;;;;;4394851;32;20006;-75
2021/05/17 06:38:28;;;;;;;;;;;11.80;92.00;;;;;;4395055;32;20018;-75
2021/05/17 06:40:56;;;;;;;;;;;11.80;91.90;;;;;;4408728;32;20018;-74
2021/05/17 06:43:26;;;;;;;;;;;11.80;92.00;;;;;;4408362;32;20083;-75
2021/05/17 06:45:54;;;;;;;;;;;11.80;92.10;;;;;;4408385;32;20011;-74
2021/05/17 06:48:27;;;;;;;;;;;11.80;92.10;;;;;;4394538;32;20001;-74
2021/05/17 06:50:56;;;;;;;;;;;11.90;92.10;;;;;;4408456;32;20389;-74
2021/05/17 06:53:26;;;;;;;;;;;11.90;92.10;;;;;;4394528;32;20063;-74
2021/05/17 06:56:07;;;;;;;;;;;11.90;92.00;;;;;;4408594;32;20008;-74
2021/05/17 06:58:47;;;;;;;;;;;11.90;92.10;;;;;;4381773;32;20459;-74
2021/05/17 07:01:20;;;;;;;;;;;11.90;92.20;;;;;;4394288;32;20423;-74
2021/05/17 07:03:50;;;;;;;;;;;11.90;92.30;;;;;;4394362;32;20008;-73
2021/05/17 07:06:23;;;;;;;;;;;11.80;92.30;;;;;;4394536;32;20068;-73
2021/05/17 07:14:16;;;;;;;;;;;11.80;92.50;;;;;;4393997;32;20010;-74
2021/05/17 07:16:47;;;;;;;;;;;11.80;92.60;;;;;;4394457;32;20025;-74
2021/05/17 07:19:14;;;;;;;;;;;11.80;92.50;;;;;;4408048;32;20097;-74
2021/05/17 07:24:36;;;;;;;;;;;11.80;92.80;;;;;;4393849;32;20356;-74
2021/05/17 07:27:04;;;;;;;;;;;11.80;92.70;;;;;;4381830;32;20004;-74
2021/05/17 07:29:37;;;;;;;;;;;11.80;92.80;;;;;;4381294;32;20004;-74
2021/05/17 07:32:09;;;;;;;;;;;11.80;92.80;;;;;;4394046;32;20089;-74
2021/05/17 07:34:37;;;;;;;;;;;11.80;92.80;;;;;;4407488;32;20401;-73
2021/05/17 07:37:07;;;;;;;;;;;11.80;92.60;;;;;;4407687;32;20071;-74
2021/05/17 07:39:37;;;;;;;;;;;11.80;92.70;;;;;;4393960;32;20400;-74
2021/05/17 07:42:07;;;;;;;;;;;11.80;92.60;;;;;;4407128;32;20071;-74
2021/05/17 07:44:35;;;;;;;;;;;11.90;92.90;;;;;;4393978;32;20075;-74
2021/05/17 07:47:02;;;;;;;;;;;11.90;93.00;;;;;;4407518;32;20036;-74
2021/05/17 07:49:43;;;;;;;;;;;11.80;92.90;;;;;;4407221;32;20021;-74
2021/05/17 07:52:13;;;;;;;;;;;11.90;92.80;;;;;;4407443;32;20003;-74
2021/05/17 07:54:46;;;;;;;;;;;11.90;92.80;;;;;;4394086;32;20018;-74
2021/05/17 07:57:15;;;;;;;;;;;11.90;93.10;;;;;;4407488;32;20059;-74
2021/05/17 07:59:44;;;;;;;;;;;11.90;92.90;;;;;;4393957;32;20348;-74
2021/05/17 08:02:21;;;;;;;;;;;12.00;92.90;;;;;;4393480;32;20466;-74
2021/05/17 08:04:52;;;;;;;;;;;12.00;92.80;;;;;;4407331;32;20016;-74
2021/05/17 08:07:21;;;;;;;;;;;12.00;92.80;;;;;;4381306;32;20047;-74
2021/05/17 08:09:52;;;;;;;;;;;12.00;92.60;;;;;;4407346;32;20014;-74
2021/05/17 08:12:22;;;;;;;;;;;12.00;92.70;;;;;;4407430;32;20388;-74
2021/05/17 08:14:51;;;;;;;;;;;12.10;92.70;;;;;;4407255;32;20009;-74
2021/05/17 08:17:18;;;;;;;;;;;12.10;92.70;;;;;;4380173;32;20460;-74
2021/05/17 08:19:51;;;;;;;;;;;12.10;92.70;;;;;;4406924;32;20007;-74
2021/05/17 08:22:19;;;;;;;;;;;12.20;92.70;;;;;;4393583;32;20026;-74
2021/05/17 08:24:55;;;;;;;;;;;12.20;92.70;;;;;;4393071;32;20027;-74
2021/05/17 08:27:23;;;;;;;;;;;12.20;92.70;;;;;;4407008;32;19996;-74
2021/05/17 08:29:56;;;;;;;;;;;12.20;92.60;;;;;;4393205;32;19996;-74
2021/05/17 08:32:25;;;;;;;;;;;12.20;92.70;;;;;;4393000;32;20046;-74
2021/05/17 08:34:56;;;;;;;;;;;12.20;92.60;;;;;;4393317;32;20000;-74
2021/05/17 08:37:26;;;;;;;;;;;12.30;92.50;;;;;;4406894;32;19999;-74
2021/05/17 08:39:53;;;;;;;;;;;12.30;92.40;;;;;;4393116;32;19996;-74
2021/05/17 08:42:34;;;;;;;;;;;12.30;92.50;;;;;;4394824;32;20004;-74
2021/05/17 08:45:02;;;;;;;;;;;12.30;92.50;;;;;;4406752;32;20012;-74
2021/05/17 08:47:30;;;;;;;;;;;12.30;92.50;;;;;;4393139;32;20007;-74
2021/05/17 08:50:00;;;;;;;;;;;12.30;92.50;;;;;;4393707;32;20034;-74
2021/05/17 08:52:32;;;;;;;;;;;12.30;92.50;;;;;;4379896;32;20007;-74
2021/05/17 08:55:00;;;;;;;;;;;12.30;92.50;;;;;;4393240;32;20011;-74
2021/05/17 08:57:27;;;;;;;;;;;12.30;92.50;;;;;;4406596;32;20012;-74
2021/05/17 09:00:00;;;;;;;;;;;12.30;92.50;;;;;;4406635;32;20358;-74
2021/05/17 09:02:33;;;;;;;;;;;12.30;92.50;;;;;;4393056;32;20026;-74
2021/05/17 09:05:13;;;;;;;;;;;12.30;92.60;;;;;;4393083;32;20435;-74
2021/05/17 09:07:42;;;;;;;;;;;12.30;92.60;;;;;;4406696;32;20051;-74
2021/05/17 09:10:13;;;;;;;;;;;12.30;92.60;;;;;;4392662;32;20039;-74
2021/05/17 09:13:00;;;;;;;;;;;12.20;92.60;;;;;;4406202;32;20016;-74
2021/05/17 09:15:28;;;;;;;;;;;12.20;92.60;;;;;;4405811;32;20401;-74
2021/05/17 09:17:56;;;;;;;;;;;12.20;92.60;;;;;;4380001;32;20069;-74
2021/05/17 09:20:34;;;;;;;;;;;12.20;92.70;;;;;;4392509;32;20356;-74
2021/05/17 09:23:06;;;;;;;;;;;12.20;92.80;;;;;;4392806;32;20027;-74
2021/05/17 09:25:36;;;;;;;;;;;12.10;92.80;;;;;;4392619;32;20401;-74
2021/05/17 09:28:04;;;;;;;;;;;12.00;92.90;;;;;;4406837;32;20004;-74
2021/05/17 09:30:51;;;;;;;;;;;12.00;92.90;;;;;;4409373;32;20079;-73
2021/05/17 09:33:19;;;;;;;;;;;12.00;93.00;;;;;;4382856;32;20000;-74
2021/05/17 09:35:50;;;;;;;;;;;12.00;93.00;;;;;;4395817;32;20014;-74
2021/05/17 09:38:26;;;;;;;;;;;12.00;93.00;;;;;;4409416;32;20007;-74
2021/05/17 09:41:00;;;;;;;;;;;12.00;93.00;;;;;;4409242;32;19999;-73
2021/05/17 09:43:32;;;;;;;;;;;12.00;93.10;;;;;;4409474;32;20025;-73
2021/05/17 09:45:59;;;;;;;;;;;12.00;93.20;;;;;;4395408;32;20021;-74
2021/05/17 09:48:45;;;;;;;;;;;12.00;93.30;;;;;;4395045;32;20014;-73
2021/05/17 09:51:13;;;;;;;;;;;12.00;93.20;;;;;;4395168;32;20014;-74
2021/05/17 09:53:48;;;;;;;;;;;12.00;93.40;;;;;;4409135;32;20063;-73
2021/05/17 09:56:20;;;;;;;;;;;12.00;93.40;;;;;;4395659;32;20050;-73
2021/05/17 09:58:57;;;;;;;;;;;12.00;93.40;;;;;;4394937;32;19999;-74
2021/05/17 10:01:29;;;;;;;;;;;11.90;93.50;;;;;;4395071;32;20093;-74
2021/05/17 10:04:02;;;;;;;;;;;12.00;93.50;;;;;;4395051;32;20021;-73
2021/05/17 10:06:35;;;;;;;;;;;12.00;93.60;;;;;;4395229;32;20004;-74
2021/05/17 10:09:03;;;;;;;;;;;12.00;93.60;;;;;;4395373;32;20007;-74
2021/05/17 10:11:32;;;;;;;;;;;11.90;93.60;;;;;;4395198;32;20123;-73
2021/05/17 10:14:04;;;;;;;;;;;12.00;93.70;;;;;;4408965;32;20004;-73
2021/05/17 10:16:33;;;;;;;;;;;11.90;93.70;;;;;;4394759;32;20435;-74
2021/05/17 10:19:00;;;;;;;;;;;11.90;93.80;;;;;;4394959;32;20043;-74
2021/05/17 10:21:32;;;;;;;;;;;11.90;93.90;;;;;;4408833;32;20068;-74
2021/05/17 10:24:02;;;;;;;;;;;11.90;93.90;;;;;;4408766;32;20012;-74
2021/05/17 10:26:34;;;;;;;;;;;12.00;93.80;;;;;;4394942;32;20055;-74
2021/05/17 10:29:02;;;;;;;;;;;12.00;93.80;;;;;;4395184;32;20007;-73
2021/05/17 10:31:34;;;;;;;;;;;12.10;93.80;;;;;;4408808;32;20003;-73
2021/05/17 10:34:03;;;;;;;;;;;12.10;93.90;;;;;;4408536;32;20014;-74
2021/05/17 10:36:47;;;;;;;;;;;12.10;93.80;;;;;;4382494;32;20071;-74
2021/05/17 10:39:18;;;;;;;;;;;12.10;93.70;;;;;;4394961;32;20405;-74
2021/05/17 10:47:49;;;;;;;;;;;12.20;93.70;;;;;;4385053;32;20464;-74
2021/05/17 10:50:22;;;;;;;;;;;12.20;93.90;;;;;;4408262;32;20056;-73
2021/05/17 10:52:49;;;;;;;;;;;12.20;93.80;;;;;;4408080;32;20008;-74
2021/05/17 10:55:17;;;;;;;;;;;12.20;93.70;;;;;;4381574;32;20000;-73
2021/05/17 11:00:38;;;;;;;;;;;12.20;93.70;;;;;;4408287;32;20395;-74
2021/05/17 11:03:08;;;;;;;;;;;12.20;93.90;;;;;;4394175;32;20012;-74
2021/05/17 11:05:40;;;;;;;;;;;12.20;94.10;;;;;;4381361;32;20055;-74
2021/05/17 11:08:14;;;;;;;;;;;12.20;94.20;;;;;;4408235;32;20017;-74
2021/05/17 11:10:44;;;;;;;;;;;12.20;94.00;;;;;;4394024;32;20000;-74
2021/05/17 11:13:15;;;;;;;;;;;12.30;94.00;;;;;;4408120;32;20064;-74
2021/05/17 11:15:59;;;;;;;;;;;12.30;94.00;;;;;;4407767;32;20393;-74
2021/05/17 11:18:29;;;;;;;;;;;12.30;94.00;;;;;;4394481;32;20047;-73
2021/05/17 11:20:58;;;;;;;;;;;12.40;94.10;;;;;;4393905;32;20093;-74
2021/05/17 11:23:34;;;;;;;;;;;12.40;94.00;;;;;;4394435;32;20480;-73
2021/05/17 11:26:09;;;;;;;;;;;12.40;94.10;;;;;;4407973;32;20007;-73
2021/05/17 11:28:37;;;;;;;;;;;12.50;93.90;;;;;;4407948;32;20115;-74
2021/05/17 11:33:56;;;;;;;;;;;12.50;94.00;;;;;;4407502;32;20442;-74
2021/05/17 11:36:31;;;;;;;;;;;12.60;94.00;;;;;;4394056;32;20029;-74
2021/05/17 11:39:05;;;;;;;;;;;12.60;93.90;;;;;;4394279;32;20011;-73
2021/05/17 11:41:32;;;;;;;;;;;12.60;93.90;;;;;;4407372;32;20018;-74
2021/05/17 11:44:03;;;;;;;;;;;12.60;93.80;;;;;;4381859;32;20000;-74
2021/05/17 11:46:57;;;;;;;;;;;12.60;93.80;;;;;;4381742;32;19993;-74
2021/05/17 11:49:28;;;;;;;;;;;12.70;93.70;;;;;;4399292;32;20016;-74
2021/05/17 11:51:56;;;;;;;;;;;12.70;93.80;;;;;;4394029;32;20010;-74
2021/05/17 11:54:24;;;;;;;;;;;12.70;93.60;;;;;;4407277;32;20004;-74
2021/05/17 11:56:52;;;;;;;;;;;12.70;93.80;;;;;;4407310;32;20000;-74
2021/05/17 11:59:24;;;;;;;;;;;12.80;93.70;;;;;;4393296;32;20003;-74
2021/05/17 12:01:59;;;;;;;;;;;12.80;93.60;;;;;;4407175;32;19999;-74
2021/05/17 12:04:33;;;;;;;;;;;12.80;93.50;;;;;;4407297;32;20007;-74
2021/05/17 12:07:07;;;;;;;;;;;12.90;93.60;;;;;;4381377;32;20055;-74
2021/05/17 12:09:36;;;;;;;;;;;12.90;93.40;;;;;;4381065;32;20043;-74
2021/05/17 12:12:14;;;;;;;;;;;12.90;93.30;;;;;;4407293;32;20359;-74
2021/05/17 12:14:43;;;;;;;;;;;12.90;93.40;;;;;;4380993;32;20067;-74
2021/05/17 12:17:23;;;;;;;;;;;12.90;93.40;;;;;;4393323;32;19992;-73
2021/05/17 12:19:56;;;;;;;;;;;12.90;93.30;;;;;;4380762;32;20008;-73
2021/05/17 12:22:27;;;;;;;;;;;13.00;93.30;;;;;;4393612;32;20060;-73
2021/05/17 12:24:58;;;;;;;;;;;13.00;93.20;;;;;;4406910;32;20014;-74
2021/05/17 12:27:25;;;;;;;;;;;13.00;92.90;;;;;;4381097;32;20000;-73
2021/05/17 12:29:57;;;;;;;;;;;13.00;92.90;;;;;;4406774;32;20055;-74
2021/05/17 12:32:40;;;;;;;;;;;13.00;93.00;;;;;;4393041;32;20421;-74
2021/05/17 12:35:25;;;;;;;;;;;13.00;93.00;;;;;;4406771;32;20424;-74
2021/05/17 12:37:57;;;;;;;;;;;13.00;93.00;;;;;;4406605;32;20012;-74
2021/05/17 12:40:32;;;;;;;;;;;13.00;93.00;;;;;;4381076;32;19999;-74
2021/05/17 12:43:06;;;;;;;;;;;13.10;93.10;;;;;;4392864;32;19999;-73
2021/05/17 12:45:34;;;;;;;;;;;13.10;93.20;;;;;;4406955;32;20369;-74
2021/05/17 12:48:05;;;;;;;;;;;13.20;93.00;;;;;;4393163;32;20004;-74
2021/05/17 12:50:36;;;;;;;;;;;13.20;93.00;;;;;;4392969;32;20397;-74
2021/05/17 12:53:19;;;;;;;;;;;13.30;92.90;;;;;;4406625;32;20007;-74
2021/05/17 12:55:48;;;;;;;;;;;13.30;92.50;;;;;;4406815;32;20014;-74
2021/05/17 12:58:25;;;;;;;;;;;13.30;92.60;;;;;;4406250;32;20416;-74
2021/05/17 13:00:54;;;;;;;;;;;13.30;92.50;;;;;;4392990;32;20067;-74
2021/05/17 13:03:29;;;;;;;;;;;13.30;92.50;;;;;;4406100;32;20394;-74
2021/05/17 13:05:56;;;;;;;;;;;13.30;92.40;;;;;;4393194;32;20029;-73
2021/05/17 13:08:36;;;;;;;;;;;13.30;92.60;;;;;;4392653;32;20000;-74
2021/05/17 13:11:09;;;;;;;;;;;13.30;92.90;;;;;;4380339;32;20000;-74
2021/05/17 13:13:56;;;;;;;;;;;13.40;92.90;;;;;;4406810;32;20008;-74
2021/05/17 13:16:30;;;;;;;;;;;13.50;92.80;;;;;;4392427;32;20000;-74
2021/05/17 13:19:52;;;;;;;;;;;13.50;92.80;;;;;;4406370;32;19999;-74
2021/05/17 13:25:24;;;;;;;;;;;13.70;92.50;;;;;;4392297;32;20388;-74
2021/05/17 13:30:53;;;;;;;;;;;13.70;92.50;;;;;;4392290;32;20007;-74
2021/05/17 13:33:22;;;;;;;;;;;13.70;92.30;;;;;;4392851;32;20008;-74
2021/05/17 13:36:13;;;;;;;;;;;13.70;92.30;;;;;;4405119;32;42214;-74
2021/05/17 13:38:43;;;;;;;;;;;13.70;92.30;;;;;;4397387;32;43199;-73
2021/05/17 13:41:10;;;;;;;;;;;13.70;92.30;;;;;;4404994;32;43096;-74
2021/05/17 13:43:40;;;;;;;;;;;13.70;92.20;;;;;;4404714;32;43592;-74
2021/05/17 13:46:08;;;;;;;;;;;13.70;92.10;;;;;;4391397;32;43056;-74
2021/05/17 13:48:48;;;;;;;;;;;13.70;92.10;;;;;;4405019;32;43714;-74
2021/05/17 13:51:19;;;;;;;;;;;13.70;92.00;;;;;;4391139;32;43659;-74
2021/05/17 13:53:46;;;;;;;;;;;13.70;92.00;;;;;;4391405;32;43929;-74
2021/05/17 13:56:16;;;;;;;;;;;13.70;92.00;;;;;;4404816;32;43699;-74
2021/05/17 13:58:43;;;;;;;;;;;13.70;92.00;;;;;;4404906;32;43729;-74
2021/05/17 14:01:13;;;;;;;;;;;13.70;91.80;;;;;;4404879;32;43121;-74
2021/05/17 14:03:44;;;;;;;;;;;13.70;91.90;;;;;;4405946;32;20016;-74
2021/05/17 14:06:12;;;;;;;;;;;13.70;91.80;;;;;;4391104;32;43090;-74
2021/05/17 14:08:42;;;;;;;;;;;13.60;91.80;;;;;;4391189;32;42535;-74
2021/05/17 14:11:13;;;;;;;;;;;13.70;92.30;;;;;;4404809;32;43593;-74
2021/05/17 14:13:43;;;;;;;;;;;13.80;91.90;;;;;;4404862;32;43758;-74
2021/05/17 14:16:12;;;;;;;;;;;13.80;91.70;;;;;;4406157;32;43442;-74
2021/05/17 14:18:41;;;;;;;;;;;13.90;91.60;;;;;;4407654;32;43867;-74
2021/05/17 14:21:13;;;;;;;;;;;13.90;91.50;;;;;;4407347;32;44847;-74
2021/05/17 14:23:40;;;;;;;;;;;14.00;91.30;;;;;;4393884;32;42512;-74
2021/05/17 14:26:08;;;;;;;;;;;14.00;91.10;;;;;;4407467;32;43855;-74
2021/05/17 14:28:35;;;;;;;;;;;14.00;91.30;;;;;;4393459;32;42898;-74
2021/05/17 14:31:09;;;;;;;;;;;14.10;91.10;;;;;;4407265;32;43656;-74
2021/05/17 14:33:36;;;;;;;;;;;14.10;91.00;;;;;;4407560;32;44740;-74
2021/05/17 14:36:03;;;;;;;;;;;14.10;90.50;;;;;;4408508;32;20442;-74
2021/05/17 14:38:39;;;;;;;;;;;14.10;90.20;;;;;;4407306;32;43493;-74
2021/05/17 14:41:09;;;;;;;;;;;14.00;90.40;;;;;;4394004;32;44270;-74
2021/05/17 14:43:39;;;;;;;;;;;14.00;90.50;;;;;;4393361;32;42498;-73
2021/05/17 14:46:06;;;;;;;;;;;14.10;90.40;;;;;;4407004;32;43491;-74
2021/05/17 14:48:36;;;;;;;;;;;14.10;90.40;;;;;;4407258;32;43750;-73
2021/05/17 14:51:06;;;;;;;;;;;14.20;90.30;;;;;;4407195;32;43092;-73
2021/05/17 14:53:39;;;;;;;;;;;14.20;90.20;;;;;;4393502;32;42182;-74
2021/05/17 14:56:06;;;;;;;;;;;14.20;89.60;;;;;;4407545;32;43021;-74
2021/05/17 14:58:41;;;;;;;;;;;14.20;90.20;;;;;;4406830;32;42633;-74
2021/05/17 15:01:08;;;;;;;;;;;14.20;90.20;;;;;;4393596;32;43494;-74
2021/05/17 15:03:38;;;;;;;;;;;14.20;90.10;;;;;;4406170;32;43258;-74
2021/05/17 15:06:05;;;;;;;;;;;14.20;90.10;;;;;;4407986;32;20011;-74
2021/05/17 15:08:32;;;;;;;;;;;14.20;90.00;;;;;;4406572;32;43359;-74
2021/05/17 15:10:59;;;;;;;;;;;14.20;90.00;;;;;;4406587;32;42213;-74
2021/05/17 15:13:27;;;;;;;;;;;14.20;90.00;;;;;;4406742;32;42862;-74
2021/05/17 15:15:57;;;;;;;;;;;14.20;90.10;;;;;;4406819;32;43757;-74
2021/05/17 15:18:27;;;;;;;;;;;14.20;90.10;;;;;;4406740;32;42862;-74
2021/05/17 15:20:57;;;;;;;;;;;14.10;89.80;;;;;;4393400;32;43826;-74